sensor_id;sensor_type;location;lat;lon;timestamp;temperature;humidity
10788;DHT22;5446;50.826;4.380;2022-11-20T00:01:25;3.50;99.90
10788;DHT22;5446;50.826;4.380;2022-11-20T00:03:53;3.60;99.90
10788;DHT22;5446;50.826;4.380;2022-11-20T00:06:20;3.60;99.90
10788;DHT22;5446;50.826;4.380;2022-11-20T00:08:46;3.60;99.90
10788;DHT22;5446;50.826;4.380;2022-11-20T00:11:14;3.50;99.90
10788;DHT22;5446;50.826;4.380;2022-11-20T00:13:40;3.50;99.90
10788;DHT22;5446;50.826;4.380;2022-11-20T00:16:08;3.60;99.90
10788;DHT22;5446;50.826;4.380;2022-11-20T00:18:34;3.60;99.90
10788;DHT22;5446;50.826;4.380;2022-11-20T00:21:05;3.60;99.90
10788;DHT22;5446;50.826;4.380;2022-11-20T00:23:31;3.70;99.90
10788;DHT22;5446;50.826;4.380;2022-11-20T00:26:01;3.70;99.90
10788;DHT22;5446;50.826;4.380;2022-11-20T00:28:27;3.80;99.90
10788;DHT22;5446;50.826;4.380;2022-11-20T00:31:01;3.80;99.90
10788;DHT22;5446;50.826;4.380;2022-11-20T00:33:27;3.70;99.90
10788;DHT22;5446;50.826;4.380;2022-11-20T00:35:53;3.70;99.90
10788;DHT22;5446;50.826;4.380;2022-11-20T00:38:19;3.80;99.90
10788;DHT22;5446;50.826;4.380;2022-11-20T00:40:44;3.80;99.90
10788;DHT22;5446;50.826;4.380;2022-11-20T00:43:10;3.70;99.90
10788;DHT22;5446;50.826;4.380;2022-11-20T00:45:36;3.80;99.90
10788;DHT22;5446;50.826;4.380;2022-11-20T00:48:01;3.70;99.90
10788;DHT22;5446;50.826;4.380;2022-11-20T00:50:27;3.70;99.90
10788;DHT22;5446;50.826;4.380;2022-11-20T00:52:52;3.80;99.90
10788;DHT22;5446;50.826;4.380;2022-11-20T00:55:18;3.90;99.90
10788;DHT22;5446;50.826;4.380;2022-11-20T00:57:44;3.80;99.90
10788;DHT22;5446;50.826;4.380;2022-11-20T01:00:10;3.80;99.90
10788;DHT22;5446;50.826;4.380;2022-11-20T01:02:35;3.70;99.90
10788;DHT22;5446;50.826;4.380;2022-11-20T01:05:01;3.80;99.90
10788;DHT22;5446;50.826;4.380;2022-11-20T01:07:27;3.80;99.90
10788;DHT22;5446;50.826;4.380;2022-11-20T01:09:53;3.90;99.90
10788;DHT22;5446;50.826;4.380;2022-11-20T01:12:18;4.00;99.90
10788;DHT22;5446;50.826;4.380;2022-11-20T01:14:44;3.80;99.90
10788;DHT22;5446;50.826;4.380;2022-11-20T01:17:10;3.70;99.90
10788;DHT22;5446;50.826;4.380;2022-11-20T01:19:35;3.70;99.90
10788;DHT22;5446;50.826;4.380;2022-11-20T01:22:01;3.70;99.90
10788;DHT22;5446;50.826;4.380;2022-11-20T01:24:27;3.70;99.90
10788;DHT22;5446;50.826;4.380;2022-11-20T01:26:52;3.80;99.90
10788;DHT22;5446;50.826;4.380;2022-11-20T01:29:21;3.90;99.90
10788;DHT22;5446;50.826;4.380;2022-11-20T01:31:47;3.90;99.90
10788;DHT22;5446;50.826;4.380;2022-11-20T01:34:17;3.70;99.90
10788;DHT22;5446;50.826;4.380;2022-11-20T01:36:43;3.80;99.90
10788;DHT22;5446;50.826;4.380;2022-11-20T01:39:15;3.90;99.90
10788;DHT22;5446;50.826;4.380;2022-11-20T01:41:41;3.90;99.90
10788;DHT22;5446;50.826;4.380;2022-11-20T01:44:47;3.90;99.90
10788;DHT22;5446;50.826;4.380;2022-11-20T01:47:17;3.90;99.90
10788;DHT22;5446;50.826;4.380;2022-11-20T01:50:10;3.90;99.90
10788;DHT22;5446;50.826;4.380;2022-11-20T01:52:45;3.90;99.90
10788;DHT22;5446;50.826;4.380;2022-11-20T01:55:32;3.90;99.90
10788;DHT22;5446;50.826;4.380;2022-11-20T01:58:01;4.00;99.90
10788;DHT22;5446;50.826;4.380;2022-11-20T02:00:27;3.90;99.90
10788;DHT22;5446;50.826;4.380;2022-11-20T02:02:58;4.00;99.90
10788;DHT22;5446;50.826;4.380;2022-11-20T02:05:31;4.00;99.90
10788;DHT22;5446;50.826;4.380;2022-11-20T02:07:59;4.00;99.90
10788;DHT22;5446;50.826;4.380;2022-11-20T02:10:26;4.00;99.90
10788;DHT22;5446;50.826;4.380;2022-11-20T02:12:52;4.10;99.90
10788;DHT22;5446;50.826;4.380;2022-11-20T02:15:36;4.10;99.90
10788;DHT22;5446;50.826;4.380;2022-11-20T02:18:02;4.00;99.90
10788;DHT22;5446;50.826;4.380;2022-11-20T02:20:28;4.00;99.90
10788;DHT22;5446;50.826;4.380;2022-11-20T02:22:56;4.00;99.90
10788;DHT22;5446;50.826;4.380;2022-11-20T02:25:24;4.00;99.90
10788;DHT22;5446;50.826;4.380;2022-11-20T02:27:51;3.90;99.90
10788;DHT22;5446;50.826;4.380;2022-11-20T02:30:17;4.00;99.90
10788;DHT22;5446;50.826;4.380;2022-11-20T02:32:43;4.00;99.90
10788;DHT22;5446;50.826;4.380;2022-11-20T02:35:38;3.90;99.90
10788;DHT22;5446;50.826;4.380;2022-11-20T02:37:57;3.90;99.90
10788;DHT22;5446;50.826;4.380;2022-11-20T02:40:23;3.90;99.90
10788;DHT22;5446;50.826;4.380;2022-11-20T02:42:53;4.00;99.90
10788;DHT22;5446;50.826;4.380;2022-11-20T02:45:19;3.90;99.90
10788;DHT22;5446;50.826;4.380;2022-11-20T02:47:45;3.90;99.90
10788;DHT22;5446;50.826;4.380;2022-11-20T02:50:11;3.90;99.90
10788;DHT22;5446;50.826;4.380;2022-11-20T02:52:37;3.90;99.90
10788;DHT22;5446;50.826;4.380;2022-11-20T02:55:03;3.90;99.90
10788;DHT22;5446;50.826;4.380;2022-11-20T02:57:29;3.90;99.90
10788;DHT22;5446;50.826;4.380;2022-11-20T02:59:55;3.90;99.90
10788;DHT22;5446;50.826;4.380;2022-11-20T03:02:21;4.00;99.90
10788;DHT22;5446;50.826;4.380;2022-11-20T03:04:46;4.00;99.90
10788;DHT22;5446;50.826;4.380;2022-11-20T03:07:12;4.00;99.90
10788;DHT22;5446;50.826;4.380;2022-11-20T03:09:38;4.00;99.90
10788;DHT22;5446;50.826;4.380;2022-11-20T03:12:04;3.90;99.90
10788;DHT22;5446;50.826;4.380;2022-11-20T03:14:29;3.90;99.90
10788;DHT22;5446;50.826;4.380;2022-11-20T03:16:55;4.00;99.90
10788;DHT22;5446;50.826;4.380;2022-11-20T03:19:21;4.00;99.90
10788;DHT22;5446;50.826;4.380;2022-11-20T03:21:47;3.90;99.90
10788;DHT22;5446;50.826;4.380;2022-11-20T03:24:13;4.00;99.90
10788;DHT22;5446;50.826;4.380;2022-11-20T03:26:39;4.00;99.90
10788;DHT22;5446;50.826;4.380;2022-11-20T03:29:05;3.90;99.90
10788;DHT22;5446;50.826;4.380;2022-11-20T03:31:34;4.00;99.90
10788;DHT22;5446;50.826;4.380;2022-11-20T03:34:01;4.00;99.90
10788;DHT22;5446;50.826;4.380;2022-11-20T03:36:27;4.00;99.90
10788;DHT22;5446;50.826;4.380;2022-11-20T03:38:56;4.00;99.90
10788;DHT22;5446;50.826;4.380;2022-11-20T03:41:27;4.00;99.90
10788;DHT22;5446;50.826;4.380;2022-11-20T03:44:00;4.00;99.90
10788;DHT22;5446;50.826;4.380;2022-11-20T03:46:27;4.00;99.90
10788;DHT22;5446;50.826;4.380;2022-11-20T03:48:53;4.00;99.90
10788;DHT22;5446;50.826;4.380;2022-11-20T03:51:24;4.00;99.90
10788;DHT22;5446;50.826;4.380;2022-11-20T03:53:52;4.00;99.90
10788;DHT22;5446;50.826;4.380;2022-11-20T03:56:20;4.00;99.90
10788;DHT22;5446;50.826;4.380;2022-11-20T03:58:47;4.00;99.90
10788;DHT22;5446;50.826;4.380;2022-11-20T04:01:18;4.10;99.90
10788;DHT22;5446;50.826;4.380;2022-11-20T04:03:44;4.10;99.90
10788;DHT22;5446;50.826;4.380;2022-11-20T04:06:34;4.00;99.90
10788;DHT22;5446;50.826;4.380;2022-11-20T04:09:00;4.10;99.90
10788;DHT22;5446;50.826;4.380;2022-11-20T04:11:28;4.10;99.90
10788;DHT22;5446;50.826;4.380;2022-11-20T04:13:57;4.10;99.90
10788;DHT22;5446;50.826;4.380;2022-11-20T04:16:24;4.10;99.90
10788;DHT22;5446;50.826;4.380;2022-11-20T04:18:54;4.20;99.90
10788;DHT22;5446;50.826;4.380;2022-11-20T04:21:21;4.10;99.90
10788;DHT22;5446;50.826;4.380;2022-11-20T04:23:48;4.20;99.90
10788;DHT22;5446;50.826;4.380;2022-11-20T04:26:13;4.30;99.90
10788;DHT22;5446;50.826;4.380;2022-11-20T04:28:39;4.30;99.90
10788;DHT22;5446;50.826;4.380;2022-11-20T04:33:36;4.20;99.90
10788;DHT22;5446;50.826;4.380;2022-11-20T04:36:07;4.30;99.90
10788;DHT22;5446;50.826;4.380;2022-11-20T04:38:33;4.30;99.90
10788;DHT22;5446;50.826;4.380;2022-11-20T04:41:04;4.30;99.90
10788;DHT22;5446;50.826;4.380;2022-11-20T04:43:31;4.30;99.90
10788;DHT22;5446;50.826;4.380;2022-11-20T04:45:58;4.30;99.90
10788;DHT22;5446;50.826;4.380;2022-11-20T04:48:25;4.30;99.90
10788;DHT22;5446;50.826;4.380;2022-11-20T04:50:51;4.30;99.90
10788;DHT22;5446;50.826;4.380;2022-11-20T04:53:18;4.30;99.90
10788;DHT22;5446;50.826;4.380;2022-11-20T04:55:44;4.40;99.90
10788;DHT22;5446;50.826;4.380;2022-11-20T04:58:09;4.40;99.90
10788;DHT22;5446;50.826;4.380;2022-11-20T05:00:35;4.40;99.90
10788;DHT22;5446;50.826;4.380;2022-11-20T05:03:01;4.40;99.90
10788;DHT22;5446;50.826;4.380;2022-11-20T05:05:27;4.40;99.90
10788;DHT22;5446;50.826;4.380;2022-11-20T05:07:52;4.50;99.90
10788;DHT22;5446;50.826;4.380;2022-11-20T05:10:18;4.50;99.90
10788;DHT22;5446;50.826;4.380;2022-11-20T05:12:44;4.40;99.90
10788;DHT22;5446;50.826;4.380;2022-11-20T05:15:09;4.40;99.90
10788;DHT22;5446;50.826;4.380;2022-11-20T05:17:35;4.40;99.90
10788;DHT22;5446;50.826;4.380;2022-11-20T05:20:01;4.40;99.90
10788;DHT22;5446;50.826;4.380;2022-11-20T05:22:27;4.50;99.90
10788;DHT22;5446;50.826;4.380;2022-11-20T05:24:52;4.50;99.90
10788;DHT22;5446;50.826;4.380;2022-11-20T05:27:18;4.50;99.90
10788;DHT22;5446;50.826;4.380;2022-11-20T05:29:44;4.50;99.90
10788;DHT22;5446;50.826;4.380;2022-11-20T05:32:09;4.70;99.90
10788;DHT22;5446;50.826;4.380;2022-11-20T05:34:35;4.60;99.90
10788;DHT22;5446;50.826;4.380;2022-11-20T05:37:02;4.60;99.90
10788;DHT22;5446;50.826;4.380;2022-11-20T05:39:28;4.70;99.90
10788;DHT22;5446;50.826;4.380;2022-11-20T05:41:53;4.70;99.90
10788;DHT22;5446;50.826;4.380;2022-11-20T05:44:38;4.70;99.90
10788;DHT22;5446;50.826;4.380;2022-11-20T05:47:04;4.70;99.90
10788;DHT22;5446;50.826;4.380;2022-11-20T05:49:30;4.70;99.90
10788;DHT22;5446;50.826;4.380;2022-11-20T05:51:56;4.80;99.90
10788;DHT22;5446;50.826;4.380;2022-11-20T05:54:21;4.90;99.90
10788;DHT22;5446;50.826;4.380;2022-11-20T05:56:47;4.80;99.90
10788;DHT22;5446;50.826;4.380;2022-11-20T05:59:12;4.80;99.90
10788;DHT22;5446;50.826;4.380;2022-11-20T06:01:38;4.80;99.90
10788;DHT22;5446;50.826;4.380;2022-11-20T06:04:04;4.80;99.90
10788;DHT22;5446;50.826;4.380;2022-11-20T06:06:29;4.70;99.90
10788;DHT22;5446;50.826;4.380;2022-11-20T06:08:55;4.70;99.90
10788;DHT22;5446;50.826;4.380;2022-11-20T06:11:21;4.70;99.90
10788;DHT22;5446;50.826;4.380;2022-11-20T06:13:47;4.70;99.90
10788;DHT22;5446;50.826;4.380;2022-11-20T06:16:17;4.70;99.90
10788;DHT22;5446;50.826;4.380;2022-11-20T06:18:43;4.70;99.90
10788;DHT22;5446;50.826;4.380;2022-11-20T06:21:26;4.70;99.90
10788;DHT22;5446;50.826;4.380;2022-11-20T06:23:53;4.70;99.90
10788;DHT22;5446;50.826;4.380;2022-11-20T06:26:24;4.70;99.90
10788;DHT22;5446;50.826;4.380;2022-11-20T06:28:52;4.70;99.90
10788;DHT22;5446;50.826;4.380;2022-11-20T06:31:20;4.80;99.90
10788;DHT22;5446;50.826;4.380;2022-11-20T06:33:46;4.90;99.90
10788;DHT22;5446;50.826;4.380;2022-11-20T06:36:14;4.90;99.90
10788;DHT22;5446;50.826;4.380;2022-11-20T06:38:40;4.80;99.90
10788;DHT22;5446;50.826;4.380;2022-11-20T06:41:11;4.80;99.90
10788;DHT22;5446;50.826;4.380;2022-11-20T06:43:37;4.80;99.90
10788;DHT22;5446;50.826;4.380;2022-11-20T06:46:03;4.90;99.90
10788;DHT22;5446;50.826;4.380;2022-11-20T06:48:29;5.00;99.90
10788;DHT22;5446;50.826;4.380;2022-11-20T06:50:55;5.00;99.90
10788;DHT22;5446;50.826;4.380;2022-11-20T06:53:22;5.10;99.90
10788;DHT22;5446;50.826;4.380;2022-11-20T06:55:48;5.10;99.90
10788;DHT22;5446;50.826;4.380;2022-11-20T06:58:15;5.10;99.90
10788;DHT22;5446;50.826;4.380;2022-11-20T07:00:41;5.10;99.90
10788;DHT22;5446;50.826;4.380;2022-11-20T07:03:08;5.10;99.90
10788;DHT22;5446;50.826;4.380;2022-11-20T07:05:35;5.20;99.90
10788;DHT22;5446;50.826;4.380;2022-11-20T07:08:02;5.20;99.90
10788;DHT22;5446;50.826;4.380;2022-11-20T07:10:28;5.20;99.90
10788;DHT22;5446;50.826;4.380;2022-11-20T07:12:54;5.30;99.90
10788;DHT22;5446;50.826;4.380;2022-11-20T07:15:21;5.30;99.90
10788;DHT22;5446;50.826;4.380;2022-11-20T07:17:47;5.20;99.90
10788;DHT22;5446;50.826;4.380;2022-11-20T07:20:13;5.30;99.90
10788;DHT22;5446;50.826;4.380;2022-11-20T07:22:39;5.20;99.90
10788;DHT22;5446;50.826;4.380;2022-11-20T07:25:06;5.30;99.90
10788;DHT22;5446;50.826;4.380;2022-11-20T07:27:32;5.40;99.90
10788;DHT22;5446;50.826;4.380;2022-11-20T07:29:57;5.40;99.90
10788;DHT22;5446;50.826;4.380;2022-11-20T07:32:23;5.50;99.90
10788;DHT22;5446;50.826;4.380;2022-11-20T07:34:49;5.50;99.90
10788;DHT22;5446;50.826;4.380;2022-11-20T07:37:16;5.50;99.90
10788;DHT22;5446;50.826;4.380;2022-11-20T07:39:42;5.50;99.90
10788;DHT22;5446;50.826;4.380;2022-11-20T07:42:08;5.60;99.90
10788;DHT22;5446;50.826;4.380;2022-11-20T07:44:34;5.60;99.90
10788;DHT22;5446;50.826;4.380;2022-11-20T07:47:00;5.60;99.90
10788;DHT22;5446;50.826;4.380;2022-11-20T07:49:25;5.70;99.90
10788;DHT22;5446;50.826;4.380;2022-11-20T07:51:52;5.70;99.90
10788;DHT22;5446;50.826;4.380;2022-11-20T07:54:21;5.70;99.90
10788;DHT22;5446;50.826;4.380;2022-11-20T07:56:47;5.70;99.90
10788;DHT22;5446;50.826;4.380;2022-11-20T07:59:13;5.70;99.90
10788;DHT22;5446;50.826;4.380;2022-11-20T08:01:40;5.70;99.90
10788;DHT22;5446;50.826;4.380;2022-11-20T08:04:06;5.70;99.90
10788;DHT22;5446;50.826;4.380;2022-11-20T08:06:32;5.80;99.90
10788;DHT22;5446;50.826;4.380;2022-11-20T08:08:57;5.80;99.90
10788;DHT22;5446;50.826;4.380;2022-11-20T08:11:23;5.90;99.90
10788;DHT22;5446;50.826;4.380;2022-11-20T08:14:07;6.00;99.90
10788;DHT22;5446;50.826;4.380;2022-11-20T08:16:40;6.00;99.90
10788;DHT22;5446;50.826;4.380;2022-11-20T08:19:06;6.10;99.90
10788;DHT22;5446;50.826;4.380;2022-11-20T08:21:32;6.10;99.90
10788;DHT22;5446;50.826;4.380;2022-11-20T08:23:58;6.10;99.90
10788;DHT22;5446;50.826;4.380;2022-11-20T08:26:25;6.20;99.90
10788;DHT22;5446;50.826;4.380;2022-11-20T08:28:57;6.20;99.90
10788;DHT22;5446;50.826;4.380;2022-11-20T08:31:24;6.20;99.90
10788;DHT22;5446;50.826;4.380;2022-11-20T08:33:51;6.40;99.90
10788;DHT22;5446;50.826;4.380;2022-11-20T08:36:17;6.30;99.90
10788;DHT22;5446;50.826;4.380;2022-11-20T08:38:47;6.40;99.90
10788;DHT22;5446;50.826;4.380;2022-11-20T08:41:13;6.30;99.90
10788;DHT22;5446;50.826;4.380;2022-11-20T08:44:03;6.40;99.90
10788;DHT22;5446;50.826;4.380;2022-11-20T08:46:34;6.50;99.90
10788;DHT22;5446;50.826;4.380;2022-11-20T08:49:01;6.50;99.90
10788;DHT22;5446;50.826;4.380;2022-11-20T08:51:27;6.50;99.90
10788;DHT22;5446;50.826;4.380;2022-11-20T08:53:53;6.60;99.90
10788;DHT22;5446;50.826;4.380;2022-11-20T08:56:19;6.70;99.90
10788;DHT22;5446;50.826;4.380;2022-11-20T08:58:45;6.80;99.90
10788;DHT22;5446;50.826;4.380;2022-11-20T09:01:11;6.70;99.90
10788;DHT22;5446;50.826;4.380;2022-11-20T09:03:36;6.80;99.90
10788;DHT22;5446;50.826;4.380;2022-11-20T09:06:04;6.80;99.90
10788;DHT22;5446;50.826;4.380;2022-11-20T09:08:30;6.90;99.90
10788;DHT22;5446;50.826;4.380;2022-11-20T09:10:57;7.00;99.90
10788;DHT22;5446;50.826;4.380;2022-11-20T09:13:24;7.00;99.90
10788;DHT22;5446;50.826;4.380;2022-11-20T09:15:55;7.10;99.90
10788;DHT22;5446;50.826;4.380;2022-11-20T09:18:21;7.10;99.90
10788;DHT22;5446;50.826;4.380;2022-11-20T09:20:47;7.10;99.90
10788;DHT22;5446;50.826;4.380;2022-11-20T09:23:14;7.20;99.90
10788;DHT22;5446;50.826;4.380;2022-11-20T09:25:40;7.10;99.90
10788;DHT22;5446;50.826;4.380;2022-11-20T09:28:06;7.20;99.90
10788;DHT22;5446;50.826;4.380;2022-11-20T09:30:31;7.20;99.90
10788;DHT22;5446;50.826;4.380;2022-11-20T09:32:57;7.30;99.90
10788;DHT22;5446;50.826;4.380;2022-11-20T09:35:23;7.30;99.90
10788;DHT22;5446;50.826;4.380;2022-11-20T09:37:49;7.40;99.90
10788;DHT22;5446;50.826;4.380;2022-11-20T09:42:45;7.50;99.90
10788;DHT22;5446;50.826;4.380;2022-11-20T09:45:23;7.50;99.90
10788;DHT22;5446;50.826;4.380;2022-11-20T09:55:21;7.80;99.90
10788;DHT22;5446;50.826;4.380;2022-11-20T09:57:48;7.80;99.90
10788;DHT22;5446;50.826;4.380;2022-11-20T10:00:16;7.90;99.90
10788;DHT22;5446;50.826;4.380;2022-11-20T10:02:52;8.00;99.90
10788;DHT22;5446;50.826;4.380;2022-11-20T10:05:27;8.00;99.90
10788;DHT22;5446;50.826;4.380;2022-11-20T10:10:45;8.10;99.90
10788;DHT22;5446;50.826;4.380;2022-11-20T10:14:24;8.10;99.90
10788;DHT22;5446;50.826;4.380;2022-11-20T10:16:36;8.10;99.90
10788;DHT22;5446;50.826;4.380;2022-11-20T10:30:13;8.50;99.90
10788;DHT22;5446;50.826;4.380;2022-11-20T10:32:42;8.60;99.90
10788;DHT22;5446;50.826;4.380;2022-11-20T10:35:21;8.60;99.90
10788;DHT22;5446;50.826;4.380;2022-11-20T10:37:54;8.70;99.90
10788;DHT22;5446;50.826;4.380;2022-11-20T10:40:38;8.70;99.90
10788;DHT22;5446;50.826;4.380;2022-11-20T10:43:17;8.70;99.90
10788;DHT22;5446;50.826;4.380;2022-11-20T10:45:56;8.70;99.90
10788;DHT22;5446;50.826;4.380;2022-11-20T10:48:25;8.70;99.90
10788;DHT22;5446;50.826;4.380;2022-11-20T10:50:59;8.80;99.90
10788;DHT22;5446;50.826;4.380;2022-11-20T10:53:56;8.70;99.90
10788;DHT22;5446;50.826;4.380;2022-11-20T10:56:48;8.80;99.90
10788;DHT22;5446;50.826;4.380;2022-11-20T11:02:32;8.90;99.90
10788;DHT22;5446;50.826;4.380;2022-11-20T11:05:14;9.00;99.90
10788;DHT22;5446;50.826;4.380;2022-11-20T11:07:42;8.90;99.90
10788;DHT22;5446;50.826;4.380;2022-11-20T11:12:57;9.00;99.90
10788;DHT22;5446;50.826;4.380;2022-11-20T11:15:40;9.00;99.90
10788;DHT22;5446;50.826;4.380;2022-11-20T11:18:10;9.00;99.90
10788;DHT22;5446;50.826;4.380;2022-11-20T11:20:36;9.00;99.90
10788;DHT22;5446;50.826;4.380;2022-11-20T11:23:02;8.90;99.90
10788;DHT22;5446;50.826;4.380;2022-11-20T11:25:33;9.00;99.90
10788;DHT22;5446;50.826;4.380;2022-11-20T11:30:28;9.00;99.90
10788;DHT22;5446;50.826;4.380;2022-11-20T11:33:08;9.10;99.90
10788;DHT22;5446;50.826;4.380;2022-11-20T11:35:46;9.00;99.90
10788;DHT22;5446;50.826;4.380;2022-11-20T11:38:30;9.10;99.90
10788;DHT22;5446;50.826;4.380;2022-11-20T11:40:58;9.10;99.90
10788;DHT22;5446;50.826;4.380;2022-11-20T11:43:26;9.10;99.90
10788;DHT22;5446;50.826;4.380;2022-11-20T11:46:32;9.10;99.90
10788;DHT22;5446;50.826;4.380;2022-11-20T12:00:12;8.80;99.90
10788;DHT22;5446;50.826;4.380;2022-11-20T12:08:05;8.70;99.90
10788;DHT22;5446;50.826;4.380;2022-11-20T12:10:48;8.60;99.90
10788;DHT22;5446;50.826;4.380;2022-11-20T12:15:50;8.50;99.90
10788;DHT22;5446;50.826;4.380;2022-11-20T12:18:21;8.40;99.90
10788;DHT22;5446;50.826;4.380;2022-11-20T12:26:54;8.30;99.90
10788;DHT22;5446;50.826;4.380;2022-11-20T12:40:47;8.20;99.90
10788;DHT22;5446;50.826;4.380;2022-11-20T12:43:26;8.20;99.90
10788;DHT22;5446;50.826;4.380;2022-11-20T12:57:24;8.30;99.90
10788;DHT22;5446;50.826;4.380;2022-11-20T13:00:07;8.30;99.90
10788;DHT22;5446;50.826;4.380;2022-11-20T13:08:27;8.40;99.90
10788;DHT22;5446;50.826;4.380;2022-11-20T13:16:52;8.50;99.90
10788;DHT22;5446;50.826;4.380;2022-11-20T13:19:20;8.40;99.90
10788;DHT22;5446;50.826;4.380;2022-11-20T13:21:48;8.40;99.90
10788;DHT22;5446;50.826;4.380;2022-11-20T13:24:20;8.30;99.90
10788;DHT22;5446;50.826;4.380;2022-11-20T13:27:16;8.30;99.90
10788;DHT22;5446;50.826;4.380;2022-11-20T13:29:59;8.30;99.90
10788;DHT22;5446;50.826;4.380;2022-11-20T13:32:26;8.30;99.90
10788;DHT22;5446;50.826;4.380;2022-11-20T13:35:03;8.20;99.90
10788;DHT22;5446;50.826;4.380;2022-11-20T13:37:35;8.20;99.90
10788;DHT22;5446;50.826;4.380;2022-11-20T13:42:37;8.20;99.90
10788;DHT22;5446;50.826;4.380;2022-11-20T13:45:11;8.10;99.90
10788;DHT22;5446;50.826;4.380;2022-11-20T13:47:37;8.10;99.90
10788;DHT22;5446;50.826;4.380;2022-11-20T13:50:04;8.10;99.90
10788;DHT22;5446;50.826;4.380;2022-11-20T14:00:22;8.20;99.90
10788;DHT22;5446;50.826;4.380;2022-11-20T14:03:29;8.20;99.90
10788;DHT22;5446;50.826;4.380;2022-11-20T14:05:59;8.20;99.90
10788;DHT22;5446;50.826;4.380;2022-11-20T14:08:36;8.30;99.90
10788;DHT22;5446;50.826;4.380;2022-11-20T14:11:19;8.30;99.90
10788;DHT22;5446;50.826;4.380;2022-11-20T14:16:37;8.20;99.90
10788;DHT22;5446;50.826;4.380;2022-11-20T14:21:48;8.20;99.90
10788;DHT22;5446;50.826;4.380;2022-11-20T14:24:18;8.20;99.90
10788;DHT22;5446;50.826;4.380;2022-11-20T14:26:44;8.20;99.90
10788;DHT22;5446;50.826;4.380;2022-11-20T14:29:22;8.20;99.90
10788;DHT22;5446;50.826;4.380;2022-11-20T14:31:52;8.20;99.90
10788;DHT22;5446;50.826;4.380;2022-11-20T14:34:21;8.20;99.90
10788;DHT22;5446;50.826;4.380;2022-11-20T14:36:55;8.20;99.90
10788;DHT22;5446;50.826;4.380;2022-11-20T14:39:35;8.20;99.90
10788;DHT22;5446;50.826;4.380;2022-11-20T14:42:01;8.20;99.90
10788;DHT22;5446;50.826;4.380;2022-11-20T14:44:32;8.20;99.90
10788;DHT22;5446;50.826;4.380;2022-11-20T14:47:00;8.20;99.90
10788;DHT22;5446;50.826;4.380;2022-11-20T14:49:26;8.20;99.90
10788;DHT22;5446;50.826;4.380;2022-11-20T14:52:09;8.20;99.90
10788;DHT22;5446;50.826;4.380;2022-11-20T14:54:46;8.20;99.90
10788;DHT22;5446;50.826;4.380;2022-11-20T15:02:42;8.30;99.90
10788;DHT22;5446;50.826;4.380;2022-11-20T15:05:08;8.30;99.90
10788;DHT22;5446;50.826;4.380;2022-11-20T15:07:37;8.40;99.90
10788;DHT22;5446;50.826;4.380;2022-11-20T15:10:08;8.40;99.90
10788;DHT22;5446;50.826;4.380;2022-11-20T15:12:46;8.40;99.90
10788;DHT22;5446;50.826;4.380;2022-11-20T15:15:17;8.40;99.90
10788;DHT22;5446;50.826;4.380;2022-11-20T15:17:44;8.40;99.90
10788;DHT22;5446;50.826;4.380;2022-11-20T15:20:15;8.50;99.90
10788;DHT22;5446;50.826;4.380;2022-11-20T15:22:41;8.50;99.90
10788;DHT22;5446;50.826;4.380;2022-11-20T15:25:17;8.40;99.90
10788;DHT22;5446;50.826;4.380;2022-11-20T15:27:44;8.50;99.90
10788;DHT22;5446;50.826;4.380;2022-11-20T15:30:17;8.50;99.90
10788;DHT22;5446;50.826;4.380;2022-11-20T15:32:44;8.50;99.90
10788;DHT22;5446;50.826;4.380;2022-11-20T15:35:10;8.50;99.90
10788;DHT22;5446;50.826;4.380;2022-11-20T15:37:37;8.50;99.90
10788;DHT22;5446;50.826;4.380;2022-11-20T15:40:03;8.50;99.90
10788;DHT22;5446;50.826;4.380;2022-11-20T15:42:29;8.50;99.90
10788;DHT22;5446;50.826;4.380;2022-11-20T15:44:55;8.50;99.90
10788;DHT22;5446;50.826;4.380;2022-11-20T15:47:33;8.60;99.90
10788;DHT22;5446;50.826;4.380;2022-11-20T15:50:00;8.60;99.90
10788;DHT22;5446;50.826;4.380;2022-11-20T15:52:26;8.60;99.90
10788;DHT22;5446;50.826;4.380;2022-11-20T15:54:52;8.60;99.90
10788;DHT22;5446;50.826;4.380;2022-11-20T15:57:17;8.60;99.90
10788;DHT22;5446;50.826;4.380;2022-11-20T15:59:43;8.60;99.90
10788;DHT22;5446;50.826;4.380;2022-11-20T16:02:11;8.70;99.90
10788;DHT22;5446;50.826;4.380;2022-11-20T16:04:37;8.70;99.90
10788;DHT22;5446;50.826;4.380;2022-11-20T16:07:03;8.70;99.90
10788;DHT22;5446;50.826;4.380;2022-11-20T16:09:29;8.80;99.90
10788;DHT22;5446;50.826;4.380;2022-11-20T16:11:55;8.80;99.90
10788;DHT22;5446;50.826;4.380;2022-11-20T16:14:20;8.80;99.90
10788;DHT22;5446;50.826;4.380;2022-11-20T16:17:04;8.80;99.90
10788;DHT22;5446;50.826;4.380;2022-11-20T16:19:30;8.90;99.90
10788;DHT22;5446;50.826;4.380;2022-11-20T16:21:57;8.80;99.90
10788;DHT22;5446;50.826;4.380;2022-11-20T16:24:25;8.80;99.90
10788;DHT22;5446;50.826;4.380;2022-11-20T16:26:50;8.80;99.90
10788;DHT22;5446;50.826;4.380;2022-11-20T16:29:16;8.80;99.90
10788;DHT22;5446;50.826;4.380;2022-11-20T16:31:41;8.80;99.90
10788;DHT22;5446;50.826;4.380;2022-11-20T16:34:07;8.80;99.90
10788;DHT22;5446;50.826;4.380;2022-11-20T16:36:33;8.70;99.90
10788;DHT22;5446;50.826;4.380;2022-11-20T16:39:01;8.70;99.90
10788;DHT22;5446;50.826;4.380;2022-11-20T16:41:29;8.70;99.90
10788;DHT22;5446;50.826;4.380;2022-11-20T16:43:57;8.70;99.90
10788;DHT22;5446;50.826;4.380;2022-11-20T16:46:25;8.80;99.90
10788;DHT22;5446;50.826;4.380;2022-11-20T16:48:58;8.80;99.90
10788;DHT22;5446;50.826;4.380;2022-11-20T16:51:25;8.80;99.90
10788;DHT22;5446;50.826;4.380;2022-11-20T16:53:51;8.80;99.90
10788;DHT22;5446;50.826;4.380;2022-11-20T16:56:19;8.80;99.90
10788;DHT22;5446;50.826;4.380;2022-11-20T16:58:47;8.80;99.90
10788;DHT22;5446;50.826;4.380;2022-11-20T17:01:18;8.80;99.90
10788;DHT22;5446;50.826;4.380;2022-11-20T17:03:47;8.80;99.90
10788;DHT22;5446;50.826;4.380;2022-11-20T17:06:19;8.80;99.90
10788;DHT22;5446;50.826;4.380;2022-11-20T17:08:46;8.80;99.90
10788;DHT22;5446;50.826;4.380;2022-11-20T17:11:16;8.80;99.90
10788;DHT22;5446;50.826;4.380;2022-11-20T17:13:43;8.90;99.90
10788;DHT22;5446;50.826;4.380;2022-11-20T17:16:11;8.90;99.90
10788;DHT22;5446;50.826;4.380;2022-11-20T17:18:37;8.80;99.90
10788;DHT22;5446;50.826;4.380;2022-11-20T17:21:04;8.90;99.90
10788;DHT22;5446;50.826;4.380;2022-11-20T17:23:34;8.80;99.90
10788;DHT22;5446;50.826;4.380;2022-11-20T17:26:11;8.80;99.90
10788;DHT22;5446;50.826;4.380;2022-11-20T17:28:39;8.80;99.90
10788;DHT22;5446;50.826;4.380;2022-11-20T17:31:07;8.80;99.90
10788;DHT22;5446;50.826;4.380;2022-11-20T17:33:35;8.70;99.90
10788;DHT22;5446;50.826;4.380;2022-11-20T17:36:02;8.70;99.90
10788;DHT22;5446;50.826;4.380;2022-11-20T17:38:28;8.70;99.90
10788;DHT22;5446;50.826;4.380;2022-11-20T17:41:07;8.70;99.90
10788;DHT22;5446;50.826;4.380;2022-11-20T17:43:33;8.70;99.90
10788;DHT22;5446;50.826;4.380;2022-11-20T17:48:38;8.70;99.90
10788;DHT22;5446;50.826;4.380;2022-11-20T17:51:16;8.60;99.90
10788;DHT22;5446;50.826;4.380;2022-11-20T17:53:44;8.50;99.90
10788;DHT22;5446;50.826;4.380;2022-11-20T17:56:11;8.50;99.90
10788;DHT22;5446;50.826;4.380;2022-11-20T17:58:55;8.50;99.90
10788;DHT22;5446;50.826;4.380;2022-11-20T18:01:22;8.50;99.90
10788;DHT22;5446;50.826;4.380;2022-11-20T18:03:48;8.50;99.90
10788;DHT22;5446;50.826;4.380;2022-11-20T18:06:19;8.50;99.90
10788;DHT22;5446;50.826;4.380;2022-11-20T18:08:47;8.50;99.90
10788;DHT22;5446;50.826;4.380;2022-11-20T18:11:24;8.40;99.90
10788;DHT22;5446;50.826;4.380;2022-11-20T18:13:53;8.30;99.90